Time;durP1;ratioP1;P1;durP2;ratioP2;P2;SDS_P1;SDS_P2;PMS_P1;PMS_P2;Temp;Humidity;BMP_temperature;BMP_pressure;BME280_temperature;BME280_humidity;BME280_pressure;Samples;Min_cycle;Max_cycle;Signal;HPM_P1;HPM_P2
2021/08/10 00:00:51;;;;;;;2.74;2.46;;;;;;;21.47;70.07;100659.09;;;;-52
2021/08/10 00:03:52;;;;;;;2.88;2.32;;;;;;;21.47;70.03;100659.42;;;;-53
2021/08/10 00:06:51;;;;;;;2.67;2.30;;;;;;;21.47;70.06;100657.47;;;;-52
2021/08/10 00:09:51;;;;;;;4.50;2.42;;;;;;;21.45;70.13;100659.17;;;;-53
2021/08/10 00:12:51;;;;;;;3.08;2.45;;;;;;;21.46;70.01;100659.25;;;;-52
2021/08/10 00:15:51;;;;;;;2.93;2.40;;;;;;;21.45;70.08;100659.41;;;;-52
2021/08/10 00:18:51;;;;;;;3.33;2.51;;;;;;;21.45;70.09;100652.48;;;;-54
2021/08/10 00:21:51;;;;;;;2.62;2.32;;;;;;;21.45;70.02;100653.30;;;;-52
2021/08/10 00:24:51;;;;;;;2.55;2.35;;;;;;;21.44;70.04;100652.91;;;;-52
2021/08/10 00:27:51;;;;;;;3.02;2.38;;;;;;;21.43;70.08;100649.70;;;;-52
2021/08/10 00:30:51;;;;;;;3.03;2.46;;;;;;;21.43;70.12;100649.38;;;;-51
2021/08/10 00:33:51;;;;;;;2.75;2.29;;;;;;;21.43;70.06;100645.23;;;;-52
2021/08/10 00:36:51;;;;;;;3.08;2.40;;;;;;;21.42;70.03;100645.16;;;;-52
2021/08/10 00:39:51;;;;;;;2.51;2.31;;;;;;;21.42;70.05;100641.14;;;;-52
2021/08/10 00:42:51;;;;;;;2.49;2.24;;;;;;;21.42;70.05;100643.94;;;;-52
2021/08/10 00:45:51;;;;;;;2.77;2.23;;;;;;;21.42;70.03;100640.52;;;;-61
2021/08/10 00:48:51;;;;;;;2.93;2.49;;;;;;;21.41;70.08;100646.25;;;;-61
2021/08/10 00:51:51;;;;;;;3.17;2.32;;;;;;;21.40;70.08;100648.14;;;;-61
2021/08/10 00:54:51;;;;;;;2.59;2.29;;;;;;;21.40;69.98;100645.53;;;;-52
2021/08/10 00:57:51;;;;;;;2.76;2.31;;;;;;;21.40;70.05;100645.05;;;;-60
2021/08/10 01:00:51;;;;;;;2.37;2.17;;;;;;;21.40;70.04;100636.00;;;;-52
2021/08/10 01:03:51;;;;;;;3.34;2.20;;;;;;;21.39;70.04;100631.81;;;;-53
2021/08/10 01:06:51;;;;;;;2.45;2.25;;;;;;;21.39;69.98;100635.66;;;;-53
2021/08/10 01:09:51;;;;;;;3.05;2.32;;;;;;;21.38;70.03;100639.09;;;;-59
2021/08/10 01:12:52;;;;;;;3.59;2.17;;;;;;;21.38;70.03;100634.28;;;;-59
2021/08/10 01:15:51;;;;;;;2.47;2.27;;;;;;;21.37;70.03;100626.11;;;;-59
2021/08/10 01:18:51;;;;;;;2.43;2.23;;;;;;;21.37;70.02;100625.70;;;;-59
2021/08/10 01:21:51;;;;;;;2.81;2.29;;;;;;;21.37;70.05;100626.68;;;;-60
2021/08/10 01:24:51;;;;;;;2.86;2.35;;;;;;;21.37;70.04;100627.41;;;;-59
2021/08/10 01:27:51;;;;;;;2.30;2.10;;;;;;;21.36;70.06;100625.63;;;;-59
2021/08/10 01:30:51;;;;;;;2.38;2.15;;;;;;;21.35;70.09;100622.87;;;;-60
2021/08/10 01:34:51;;;;;;;2.50;2.30;;;;;;;21.35;70.02;100624.23;;;;-52
2021/08/10 01:37:51;;;;;;;2.33;2.11;;;;;;;21.34;70.00;100619.27;;;;-52
2021/08/10 01:40:51;;;;;;;2.99;2.31;;;;;;;21.34;70.13;100615.12;;;;-52
2021/08/10 01:43:51;;;;;;;2.33;2.13;;;;;;;21.34;70.02;100613.08;;;;-52
2021/08/10 01:46:51;;;;;;;2.53;2.06;;;;;;;21.33;70.05;100613.95;;;;-52
2021/08/10 01:49:51;;;;;;;2.93;2.19;;;;;;;21.32;70.07;100616.98;;;;-52
2021/08/10 01:52:51;;;;;;;2.55;2.35;;;;;;;21.33;70.11;100612.81;;;;-52
2021/08/10 01:55:51;;;;;;;2.85;2.20;;;;;;;21.33;70.11;100610.04;;;;-52
2021/08/10 01:58:51;;;;;;;2.40;2.20;;;;;;;21.32;70.10;100609.57;;;;-61
2021/08/10 02:01:51;;;;;;;2.99;2.07;;;;;;;21.31;70.08;100605.80;;;;-60
2021/08/10 02:04:52;;;;;;;2.34;2.12;;;;;;;21.31;70.13;100601.07;;;;-61
2021/08/10 02:07:51;;;;;;;2.23;2.03;;;;;;;21.30;70.15;100605.97;;;;-60
2021/08/10 02:10:51;;;;;;;2.87;2.27;;;;;;;21.30;70.12;100609.00;;;;-52
2021/08/10 02:13:51;;;;;;;2.49;2.29;;;;;;;21.30;70.10;100610.70;;;;-52
2021/08/10 02:16:51;;;;;;;2.29;2.09;;;;;;;21.29;70.12;100609.57;;;;-52
2021/08/10 02:19:51;;;;;;;2.50;2.07;;;;;;;21.30;70.12;100611.44;;;;-52
2021/08/10 02:22:51;;;;;;;2.15;1.99;;;;;;;21.29;70.13;100612.31;;;;-51
2021/08/10 02:25:51;;;;;;;2.29;2.09;;;;;;;21.28;70.11;100618.20;;;;-52
2021/08/10 02:28:51;;;;;;;2.49;2.10;;;;;;;21.28;70.15;100620.48;;;;-52
2021/08/10 02:31:51;;;;;;;2.85;2.26;;;;;;;21.28;70.09;100616.98;;;;-61
2021/08/10 02:34:51;;;;;;;2.38;2.18;;;;;;;21.27;70.06;100614.62;;;;-60
2021/08/10 02:37:51;;;;;;;2.40;2.08;;;;;;;21.27;70.10;100615.09;;;;-61
2021/08/10 02:40:51;;;;;;;2.55;2.00;;;;;;;21.27;70.13;100612.42;;;;-61
2021/08/10 02:43:51;;;;;;;2.37;1.95;;;;;;;21.27;70.13;100608.34;;;;-52
2021/08/10 02:46:51;;;;;;;2.17;1.97;;;;;;;21.26;70.11;100603.03;;;;-52
2021/08/10 02:49:51;;;;;;;2.06;1.85;;;;;;;21.26;70.08;100605.64;;;;-52
2021/08/10 02:52:52;;;;;;;2.23;2.03;;;;;;;21.26;70.15;100604.75;;;;-52
2021/08/10 02:55:51;;;;;;;2.34;2.13;;;;;;;21.25;70.07;100600.52;;;;-52
2021/08/10 02:58:51;;;;;;;2.31;2.01;;;;;;;21.25;70.08;100598.23;;;;-60
2021/08/10 03:01:51;;;;;;;2.33;2.11;;;;;;;21.25;70.08;100597.16;;;;-52
2021/08/10 03:04:51;;;;;;;2.50;2.09;;;;;;;21.25;70.05;100597.64;;;;-53
2021/08/10 03:07:51;;;;;;;2.15;1.95;;;;;;;21.25;70.13;100600.73;;;;-52
2021/08/10 03:10:51;;;;;;;2.20;1.92;;;;;;;21.24;70.08;100604.66;;;;-52
2021/08/10 03:13:51;;;;;;;2.19;1.99;;;;;;;21.24;70.06;100609.30;;;;-52
2021/08/10 03:16:51;;;;;;;2.09;1.89;;;;;;;21.24;70.09;100611.84;;;;-53
2021/08/10 03:19:51;;;;;;;2.20;2.00;;;;;;;21.24;70.12;100621.62;;;;-52
2021/08/10 03:22:51;;;;;;;2.44;2.09;;;;;;;21.24;70.14;100623.73;;;;-52
2021/08/10 03:25:51;;;;;;;2.30;2.10;;;;;;;21.23;70.14;100620.97;;;;-51
2021/08/10 03:28:51;;;;;;;2.10;1.90;;;;;;;21.23;70.16;100622.09;;;;-59
2021/08/10 03:31:51;;;;;;;2.29;2.08;;;;;;;21.22;70.15;100619.91;;;;-59
2021/08/10 03:34:51;;;;;;;2.29;2.02;;;;;;;21.22;70.14;100618.34;;;;-59
2021/08/10 03:37:51;;;;;;;2.20;2.00;;;;;;;21.22;70.10;100618.02;;;;-52
2021/08/10 03:40:51;;;;;;;2.30;2.10;;;;;;;21.22;70.15;100622.02;;;;-59
2021/08/10 03:43:51;;;;;;;2.19;1.99;;;;;;;21.22;70.09;100630.58;;;;-59
2021/08/10 03:46:51;;;;;;;2.26;2.06;;;;;;;21.22;70.15;100627.56;;;;-60
2021/08/10 03:49:51;;;;;;;2.25;2.02;;;;;;;21.21;70.12;100631.32;;;;-59
2021/08/10 03:52:51;;;;;;;2.18;1.83;;;;;;;21.21;70.12;100632.70;;;;-58
2021/08/10 03:55:51;;;;;;;2.30;1.93;;;;;;;21.21;70.18;100634.02;;;;-61
2021/08/10 03:58:51;;;;;;;2.23;1.96;;;;;;;21.21;70.11;100638.09;;;;-60
2021/08/10 04:01:51;;;;;;;2.31;2.08;;;;;;;21.20;70.19;100640.92;;;;-61
2021/08/10 04:04:51;;;;;;;2.19;1.99;;;;;;;21.20;70.17;100645.31;;;;-61
2021/08/10 04:07:51;;;;;;;2.29;1.96;;;;;;;21.20;70.13;100651.52;;;;-61
2021/08/10 04:10:51;;;;;;;2.10;1.90;;;;;;;21.20;70.13;100652.25;;;;-60
2021/08/10 04:13:51;;;;;;;2.03;1.85;;;;;;;21.19;70.14;100649.00;;;;-61
2021/08/10 04:16:51;;;;;;;1.92;1.80;;;;;;;21.19;70.11;100648.75;;;;-61
2021/08/10 04:19:53;;;;;;;2.23;2.03;;;;;;;21.19;70.10;100651.05;;;;-61
2021/08/10 04:22:51;;;;;;;2.21;2.01;;;;;;;21.19;70.15;100646.97;;;;-61
2021/08/10 04:25:51;;;;;;;2.27;1.87;;;;;;;21.18;70.15;100652.97;;;;-61
2021/08/10 04:28:51;;;;;;;1.99;1.86;;;;;;;21.19;70.12;100652.42;;;;-52
2021/08/10 04:31:51;;;;;;;2.10;1.91;;;;;;;21.18;70.19;100652.81;;;;-52
2021/08/10 04:34:51;;;;;;;2.07;1.81;;;;;;;21.18;70.20;100654.28;;;;-52
2021/08/10 04:37:51;;;;;;;2.43;1.93;;;;;;;21.18;70.12;100652.57;;;;-52
2021/08/10 04:40:52;;;;;;;2.09;1.85;;;;;;;21.18;70.15;100652.48;;;;-52
2021/08/10 04:43:52;;;;;;;1.98;1.81;;;;;;;21.17;70.17;100655.52;;;;-52
2021/08/10 04:46:51;;;;;;;2.08;1.89;;;;;;;21.18;70.19;100657.63;;;;-52
2021/08/10 04:49:51;;;;;;;1.90;1.80;;;;;;;21.18;70.14;100657.79;;;;-52
2021/08/10 04:52:51;;;;;;;2.25;2.05;;;;;;;21.17;70.23;100653.81;;;;-52
2021/08/10 04:55:51;;;;;;;2.16;1.90;;;;;;;21.17;70.20;100652.17;;;;-52
2021/08/10 04:58:51;;;;;;;2.19;1.99;;;;;;;21.16;70.22;100657.62;;;;-52
2021/08/10 05:01:51;;;;;;;2.17;1.94;;;;;;;21.17;70.21;100660.91;;;;-52
2021/08/10 05:04:51;;;;;;;1.82;1.72;;;;;;;21.17;70.22;100667.75;;;;-52
2021/08/10 05:07:51;;;;;;;1.95;1.84;;;;;;;21.16;70.21;100669.84;;;;-52
2021/08/10 05:10:51;;;;;;;1.99;1.73;;;;;;;21.16;70.25;100663.08;;;;-51
2021/08/10 05:13:51;;;;;;;2.95;2.17;;;;;;;21.13;67.63;100663.89;;;;-53
2021/08/10 05:16:51;;;;;;;3.26;2.31;;;;;;;20.96;66.26;100671.52;;;;-52
2021/08/10 05:19:51;;;;;;;3.65;2.40;;;;;;;20.87;66.70;100680.42;;;;-58
2021/08/10 05:22:51;;;;;;;4.09;2.70;;;;;;;20.85;66.87;100678.70;;;;-55
2021/08/10 05:25:51;;;;;;;3.21;2.41;;;;;;;20.78;66.72;100680.55;;;;-51
2021/08/10 05:28:51;;;;;;;4.91;2.41;;;;;;;20.72;66.68;100676.38;;;;-53
2021/08/10 05:31:51;;;;;;;4.17;2.45;;;;;;;20.75;66.38;100679.63;;;;-52
2021/08/10 05:34:51;;;;;;;3.45;2.49;;;;;;;20.69;66.59;100678.05;;;;-51
2021/08/10 05:37:51;;;;;;;3.67;2.44;;;;;;;20.63;66.61;100676.42;;;;-51
2021/08/10 05:40:53;;;;;;;3.60;2.58;;;;;;;20.57;66.63;100670.33;;;;-51
2021/08/10 05:43:51;;;;;;;4.35;2.57;;;;;;;20.56;66.60;100662.98;;;;-52
2021/08/10 05:46:51;;;;;;;4.72;2.53;;;;;;;20.54;66.85;100658.17;;;;-51
2021/08/10 05:49:51;;;;;;;3.89;2.53;;;;;;;20.57;67.08;100659.09;;;;-51
2021/08/10 05:52:52;;;;;;;3.88;2.35;;;;;;;20.60;67.43;100660.51;;;;-51
2021/08/10 05:55:51;;;;;;;4.81;2.60;;;;;;;20.65;67.52;100664.54;;;;-51
2021/08/10 05:58:51;;;;;;;4.17;2.67;;;;;;;20.68;67.62;100664.13;;;;-51
2021/08/10 06:01:51;;;;;;;4.45;2.49;;;;;;;20.72;67.76;100662.03;;;;-51
2021/08/10 06:04:52;;;;;;;4.82;2.40;;;;;;;20.74;67.92;100658.30;;;;-51
2021/08/10 06:07:51;;;;;;;5.05;2.29;;;;;;;20.76;68.01;100656.52;;;;-51
2021/08/10 06:10:51;;;;;;;4.83;2.55;;;;;;;20.78;68.00;100653.27;;;;-51
2021/08/10 06:13:51;;;;;;;3.71;2.50;;;;;;;20.78;68.20;100652.45;;;;-51
2021/08/10 06:16:51;;;;;;;4.28;2.32;;;;;;;20.80;68.23;100657.19;;;;-51
2021/08/10 06:19:51;;;;;;;3.36;2.19;;;;;;;20.81;68.32;100668.91;;;;-51
2021/08/10 06:22:51;;;;;;;2.69;2.32;;;;;;;20.82;68.42;100669.75;;;;-50
2021/08/10 06:25:51;;;;;;;3.41;2.39;;;;;;;20.82;68.40;100660.45;;;;-50
2021/08/10 06:28:51;;;;;;;3.29;2.17;;;;;;;20.83;68.38;100654.50;;;;-49
2021/08/10 06:31:51;;;;;;;2.55;2.33;;;;;;;20.84;68.47;100657.70;;;;-50
2021/08/10 06:34:51;;;;;;;2.32;2.12;;;;;;;20.84;68.42;100649.72;;;;-50
2021/08/10 06:37:51;;;;;;;2.65;2.14;;;;;;;20.85;68.58;100642.45;;;;-50
2021/08/10 06:40:51;;;;;;;2.87;2.23;;;;;;;20.85;68.61;100631.53;;;;-51
2021/08/10 06:43:51;;;;;;;2.55;2.15;;;;;;;20.86;68.59;100628.45;;;;-55
2021/08/10 06:46:51;;;;;;;3.35;2.29;;;;;;;20.86;68.57;100633.67;;;;-54
2021/08/10 06:49:51;;;;;;;3.11;2.31;;;;;;;20.87;68.65;100643.44;;;;-55
2021/08/10 06:52:51;;;;;;;2.29;2.01;;;;;;;20.87;68.69;100637.48;;;;-55
2021/08/10 06:55:51;;;;;;;2.77;2.21;;;;;;;20.88;68.72;100637.44;;;;-54
2021/08/10 06:58:51;;;;;;;2.35;2.15;;;;;;;20.88;68.72;100630.34;;;;-55
2021/08/10 07:01:51;;;;;;;2.99;2.26;;;;;;;20.88;68.72;100627.57;;;;-55
2021/08/10 07:04:51;;;;;;;2.56;2.22;;;;;;;20.89;68.77;100621.94;;;;-54
2021/08/10 07:07:51;;;;;;;2.26;2.00;;;;;;;20.89;68.80;100607.92;;;;-54
2021/08/10 07:10:51;;;;;;;2.82;2.20;;;;;;;20.89;68.83;100600.92;;;;-54
2021/08/10 07:13:51;;;;;;;2.68;2.13;;;;;;;20.89;68.85;100604.09;;;;-51
2021/08/10 07:16:51;;;;;;;2.37;2.10;;;;;;;20.90;68.84;100600.20;;;;-51
2021/08/10 07:19:51;;;;;;;3.52;2.29;;;;;;;20.90;68.87;100601.34;;;;-53
2021/08/10 07:22:51;;;;;;;2.95;2.13;;;;;;;20.89;68.96;100614.52;;;;-52
2021/08/10 07:25:51;;;;;;;2.91;2.22;;;;;;;20.91;68.97;100623.82;;;;-59
2021/08/10 07:28:51;;;;;;;5.34;2.38;;;;;;;20.91;69.06;100626.42;;;;-59
2021/08/10 07:31:51;;;;;;;2.93;2.30;;;;;;;20.91;69.04;100634.08;;;;-59
2021/08/10 07:34:51;;;;;;;3.57;2.18;;;;;;;20.92;69.06;100643.64;;;;-60
2021/08/10 07:37:51;;;;;;;2.32;2.10;;;;;;;20.92;69.02;100652.52;;;;-59
2021/08/10 07:40:52;;;;;;;4.06;2.10;;;;;;;20.92;69.05;100657.89;;;;-59
2021/08/10 07:43:51;;;;;;;2.30;2.01;;;;;;;20.93;69.03;100658.30;;;;-60
2021/08/10 07:46:51;;;;;;;11.08;2.32;;;;;;;20.96;69.14;100652.94;;;;-60
2021/08/10 07:49:51;;;;;;;3.26;2.04;;;;;;;20.97;69.32;100654.47;;;;-60
2021/08/10 07:52:52;;;;;;;3.21;2.21;;;;;;;20.99;69.41;100661.48;;;;-62
2021/08/10 07:55:51;;;;;;;8.04;2.20;;;;;;;21.01;69.44;100653.11;;;;-60
2021/08/10 07:58:51;;;;;;;3.20;2.32;;;;;;;21.04;69.52;100655.70;;;;-57
2021/08/10 08:01:51;;;;;;;4.61;2.19;;;;;;;21.05;69.57;100655.07;;;;-60
2021/08/10 08:04:51;;;;;;;2.65;2.17;;;;;;;21.07;69.63;100650.84;;;;-50
2021/08/10 08:07:51;;;;;;;3.99;2.13;;;;;;;21.09;69.63;100646.13;;;;-52
2021/08/10 08:10:51;;;;;;;4.89;2.11;;;;;;;21.10;69.71;100645.22;;;;-51
2021/08/10 08:13:51;;;;;;;2.13;1.87;;;;;;;21.12;69.73;100649.70;;;;-54
2021/08/10 08:16:51;;;;;;;2.68;1.98;;;;;;;21.13;69.72;100658.60;;;;-56
2021/08/10 08:19:51;;;;;;;3.17;1.91;;;;;;;21.15;69.78;100657.80;;;;-53
2021/08/10 08:22:51;;;;;;;4.67;2.12;;;;;;;21.16;69.80;100653.22;;;;-50
2021/08/10 08:25:51;;;;;;;4.31;2.07;;;;;;;21.17;69.87;100653.41;;;;-50
2021/08/10 08:28:51;;;;;;;4.12;1.90;;;;;;;21.18;69.92;100651.59;;;;-54
2021/08/10 08:31:51;;;;;;;4.82;2.16;;;;;;;21.19;69.90;100647.70;;;;-51
2021/08/10 08:34:51;;;;;;;2.57;1.98;;;;;;;21.19;69.95;100646.14;;;;-52
2021/08/10 08:37:51;;;;;;;3.43;2.14;;;;;;;21.20;69.89;100642.80;;;;-51
2021/08/10 08:40:51;;;;;;;3.14;2.09;;;;;;;21.22;69.70;100645.08;;;;-51
2021/08/10 08:43:51;;;;;;;3.16;1.95;;;;;;;21.21;69.86;100642.73;;;;-52
2021/08/10 08:46:51;;;;;;;3.98;2.00;;;;;;;21.22;69.92;100646.06;;;;-52
2021/08/10 08:49:51;;;;;;;3.98;2.10;;;;;;;21.21;69.86;100656.10;;;;-50
2021/08/10 08:52:51;;;;;;;3.70;2.15;;;;;;;21.23;69.88;100651.52;;;;-57
2021/08/10 08:55:51;;;;;;;4.51;1.97;;;;;;;21.24;69.83;100654.55;;;;-57
2021/08/10 08:58:51;;;;;;;2.21;1.87;;;;;;;21.25;69.90;100655.44;;;;-61
2021/08/10 09:01:51;;;;;;;4.01;2.00;;;;;;;21.25;69.86;100654.07;;;;-60
2021/08/10 09:04:51;;;;;;;5.65;2.09;;;;;;;21.26;69.88;100655.94;;;;-60
2021/08/10 09:07:55;;;;;;;3.36;2.05;;;;;;;21.26;69.92;100654.70;;;;-56
2021/08/10 09:10:51;;;;;;;3.61;1.98;;;;;;;21.27;69.91;100652.36;;;;-55
2021/08/10 09:13:51;;;;;;;3.57;2.00;;;;;;;21.29;69.85;100659.69;;;;-59
2021/08/10 09:16:51;;;;;;;2.74;2.02;;;;;;;21.30;69.55;100663.84;;;;-62
2021/08/10 09:19:52;;;;;;;5.59;2.23;;;;;;;21.29;69.78;100665.73;;;;-50
2021/08/10 09:22:51;;;;;;;9.95;2.17;;;;;;;21.30;69.61;100665.64;;;;-53
2021/08/10 09:25:51;;;;;;;6.93;2.14;;;;;;;21.32;69.83;100665.57;;;;-55
2021/08/10 09:28:51;;;;;;;5.75;1.98;;;;;;;21.33;69.89;100664.34;;;;-49
2021/08/10 09:31:53;;;;;;;6.78;2.24;;;;;;;21.34;69.89;100662.31;;;;-49
2021/08/10 09:34:51;;;;;;;3.71;1.97;;;;;;;21.35;69.93;100664.66;;;;-50
2021/08/10 09:37:51;;;;;;;7.42;2.48;;;;;;;21.34;69.88;100662.64;;;;-50
2021/08/10 09:40:52;;;;;;;5.49;2.10;;;;;;;21.35;69.90;100657.65;;;;-56
2021/08/10 09:43:52;;;;;;;5.21;2.14;;;;;;;21.36;69.83;100659.88;;;;-55
2021/08/10 09:46:51;;;;;;;4.65;2.29;;;;;;;21.37;69.95;100655.30;;;;-57
2021/08/10 09:49:51;;;;;;;3.47;2.00;;;;;;;21.38;69.92;100650.91;;;;-53
2021/08/10 09:52:51;;;;;;;8.33;2.02;;;;;;;21.38;69.95;100653.52;;;;-53
2021/08/10 09:55:51;;;;;;;7.17;2.09;;;;;;;21.39;69.96;100649.94;;;;-52
2021/08/10 09:58:51;;;;;;;8.19;2.08;;;;;;;21.41;69.89;100655.06;;;;-54
2021/08/10 10:01:51;;;;;;;4.51;2.12;;;;;;;21.41;69.95;100652.94;;;;-52
2021/08/10 10:04:51;;;;;;;4.99;1.92;;;;;;;21.43;70.00;100648.57;;;;-50
2021/08/10 10:07:51;;;;;;;6.64;2.01;;;;;;;21.44;69.96;100648.10;;;;-61
2021/08/10 10:10:51;;;;;;;2.94;1.99;;;;;;;21.44;69.90;100642.06;;;;-57
2021/08/10 10:13:51;;;;;;;4.60;2.09;;;;;;;21.45;69.86;100638.47;;;;-57
2021/08/10 10:16:51;;;;;;;6.34;2.11;;;;;;;21.45;70.01;100641.56;;;;-63
2021/08/10 10:19:51;;;;;;;5.43;2.07;;;;;;;21.45;69.95;100637.23;;;;-62
2021/08/10 10:22:51;;;;;;;6.49;2.07;;;;;;;21.46;69.97;100638.64;;;;-59
2021/08/10 10:25:51;;;;;;;4.83;2.19;;;;;;;21.47;69.98;100643.44;;;;-57
2021/08/10 10:28:51;;;;;;;5.95;2.11;;;;;;;21.48;70.03;100637.75;;;;-60
2021/08/10 10:31:51;;;;;;;5.61;1.89;;;;;;;21.49;69.99;100634.72;;;;-57
2021/08/10 10:34:51;;;;;;;4.31;2.03;;;;;;;21.49;69.99;100632.36;;;;-56
2021/08/10 10:37:51;;;;;;;6.16;1.95;;;;;;;21.50;70.02;100634.48;;;;-57
2021/08/10 10:40:51;;;;;;;5.18;2.15;;;;;;;21.51;70.03;100635.38;;;;-52
2021/08/10 10:43:51;;;;;;;3.78;2.05;;;;;;;21.51;70.03;100632.20;;;;-52
2021/08/10 10:46:51;;;;;;;3.85;1.93;;;;;;;21.52;70.01;100632.94;;;;-51
2021/08/10 10:49:51;;;;;;;5.25;2.01;;;;;;;21.52;69.92;100634.48;;;;-55
2021/08/10 10:52:51;;;;;;;3.98;2.12;;;;;;;21.52;69.94;100637.09;;;;-53
2021/08/10 10:55:51;;;;;;;4.80;1.91;;;;;;;21.53;69.86;100637.83;;;;-48
2021/08/10 10:58:51;;;;;;;14.77;2.51;;;;;;;21.54;69.89;100638.33;;;;-51
2021/08/10 11:01:51;;;;;;;18.27;2.80;;;;;;;21.55;69.53;100636.35;;;;-49
2021/08/10 11:04:51;;;;;;;19.61;2.53;;;;;;;21.57;69.74;100637.91;;;;-48
2021/08/10 11:07:52;;;;;;;10.35;2.55;;;;;;;21.57;69.87;100637.09;;;;-54
2021/08/10 11:10:52;;;;;;;14.55;2.66;;;;;;;21.56;69.80;100634.98;;;;-57
2021/08/10 11:13:51;;;;;;;18.82;2.49;;;;;;;21.56;69.84;100628.92;;;;-54
2021/08/10 11:16:51;;;;;;;8.72;2.48;;;;;;;21.56;69.84;100628.36;;;;-61
2021/08/10 11:19:51;;;;;;;12.29;2.53;;;;;;;21.56;69.82;100630.88;;;;-49
2021/08/10 11:22:51;;;;;;;9.06;2.30;;;;;;;21.57;69.90;100629.59;;;;-53
2021/08/10 11:25:51;;;;;;;17.80;2.35;;;;;;;21.56;70.03;100626.50;;;;-52
2021/08/10 11:28:51;;;;;;;10.63;2.51;;;;;;;21.56;69.81;100631.86;;;;-52
2021/08/10 11:31:54;;;;;;;6.17;2.25;;;;;;;21.56;69.92;100629.98;;;;-52
2021/08/10 11:34:51;;;;;;;5.92;2.21;;;;;;;21.56;69.82;100628.92;;;;-52
2021/08/10 11:37:51;;;;;;;5.77;2.25;;;;;;;21.56;69.87;100625.61;;;;-52
2021/08/10 11:41:51;;;;;;;9.63;2.27;;;;;;;21.55;69.77;100622.57;;;;-52
2021/08/10 11:44:51;;;;;;;10.46;2.41;;;;;;;21.55;69.76;100625.42;;;;-59
2021/08/10 11:47:51;;;;;;;8.49;2.17;;;;;;;21.54;69.71;100620.63;;;;-59
2021/08/10 11:50:51;;;;;;;8.84;2.09;;;;;;;21.54;69.69;100620.22;;;;-59
2021/08/10 11:53:51;;;;;;;5.45;2.35;;;;;;;21.54;69.68;100613.67;;;;-59
2021/08/10 11:56:53;;;;;;;8.79;2.29;;;;;;;21.53;69.69;100616.30;;;;-59
2021/08/10 11:59:51;;;;;;;7.29;2.21;;;;;;;21.52;69.64;100614.75;;;;-59
2021/08/10 12:02:51;;;;;;;8.15;2.30;;;;;;;21.52;69.73;100614.02;;;;-60
2021/08/10 12:05:51;;;;;;;4.53;1.99;;;;;;;21.52;69.59;100613.75;;;;-52
2021/08/10 12:08:51;;;;;;;5.00;2.20;;;;;;;21.52;69.65;100610.16;;;;-52
2021/08/10 12:11:51;;;;;;;4.23;1.90;;;;;;;21.52;69.65;100613.19;;;;-53
2021/08/10 12:14:51;;;;;;;4.15;2.07;;;;;;;21.51;69.63;100611.16;;;;-52
2021/08/10 12:17:51;;;;;;;6.23;2.21;;;;;;;21.51;69.53;100614.33;;;;-53
2021/08/10 12:20:51;;;;;;;3.99;2.10;;;;;;;21.51;69.62;100609.69;;;;-52
2021/08/10 12:23:51;;;;;;;5.00;2.00;;;;;;;21.51;69.60;100604.63;;;;-52
2021/08/10 12:26:51;;;;;;;4.25;2.00;;;;;;;21.51;69.56;100603.49;;;;-52
2021/08/10 12:29:51;;;;;;;3.99;1.93;;;;;;;21.51;69.59;100599.89;;;;-49
2021/08/10 12:32:51;;;;;;;3.59;2.42;;;;;;;21.52;69.51;100598.94;;;;-52
2021/08/10 12:35:51;;;;;;;4.00;2.11;;;;;;;21.51;69.62;100601.38;;;;-57
2021/08/10 12:38:51;;;;;;;3.45;2.17;;;;;;;21.51;69.56;100599.33;;;;-58
2021/08/10 12:41:51;;;;;;;4.98;2.25;;;;;;;21.51;69.55;100587.99;;;;-60
2021/08/10 12:44:51;;;;;;;13.75;4.07;;;;;;;21.51;69.45;100584.48;;;;-61
2021/08/10 12:47:51;;;;;;;4.37;2.49;;;;;;;21.51;69.65;100583.36;;;;-61
2021/08/10 12:50:51;;;;;;;7.73;2.76;;;;;;;21.51;69.67;100579.11;;;;-61
2021/08/10 12:53:51;;;;;;;6.05;2.81;;;;;;;21.51;69.67;100579.84;;;;-61
2021/08/10 12:56:51;;;;;;;5.95;2.81;;;;;;;21.50;69.62;100568.41;;;;-60
2021/08/10 12:59:53;;;;;;;6.18;2.84;;;;;;;21.50;69.71;100570.53;;;;-61
2021/08/10 13:02:51;;;;;;;6.57;2.79;;;;;;;21.49;69.62;100573.23;;;;-61
2021/08/10 13:05:51;;;;;;;4.33;2.81;;;;;;;21.49;69.61;100566.22;;;;-61
2021/08/10 13:08:51;;;;;;;5.79;3.16;;;;;;;21.49;69.61;100567.86;;;;-61
2021/08/10 13:11:51;;;;;;;5.56;3.08;;;;;;;21.48;69.59;100564.11;;;;-60
2021/08/10 13:14:51;;;;;;;7.18;2.97;;;;;;;21.49;69.54;100565.66;;;;-60
2021/08/10 13:17:51;;;;;;;6.05;2.98;;;;;;;21.49;69.58;100564.67;;;;-54
2021/08/10 13:20:51;;;;;;;6.29;3.09;;;;;;;21.48;69.58;100559.22;;;;-53
2021/08/10 13:23:51;;;;;;;6.69;2.81;;;;;;;21.48;69.56;100556.62;;;;-52
2021/08/10 13:26:51;;;;;;;6.70;3.23;;;;;;;21.48;69.54;100559.95;;;;-60
2021/08/10 13:29:51;;;;;;;6.16;3.17;;;;;;;21.47;69.56;100558.64;;;;-61
2021/08/10 13:32:51;;;;;;;7.38;3.19;;;;;;;21.48;69.59;100557.66;;;;-60
2021/08/10 13:35:51;;;;;;;5.63;3.27;;;;;;;21.47;69.58;100552.93;;;;-54
2021/08/10 13:38:51;;;;;;;5.69;3.43;;;;;;;21.47;69.47;100548.69;;;;-57
2021/08/10 13:41:52;;;;;;;6.71;3.39;;;;;;;21.48;69.55;100550.64;;;;-54
2021/08/10 13:44:51;;;;;;;7.91;3.55;;;;;;;21.48;69.55;100547.87;;;;-55
2021/08/10 13:47:51;;;;;;;7.55;3.85;;;;;;;21.48;69.74;100551.29;;;;-48
2021/08/10 13:50:51;;;;;;;6.74;3.75;;;;;;;21.50;69.86;100544.30;;;;-49
2021/08/10 13:53:51;;;;;;;7.63;3.94;;;;;;;21.51;69.90;100546.66;;;;-49
2021/08/10 13:56:51;;;;;;;25.12;4.74;;;;;;;21.53;70.20;100547.05;;;;-47
2021/08/10 13:59:51;;;;;;;8.22;4.52;;;;;;;21.55;70.23;100540.05;;;;-52
2021/08/10 14:02:51;;;;;;;9.73;4.65;;;;;;;21.56;70.59;100540.88;;;;-61
2021/08/10 14:05:51;;;;;;;12.39;5.41;;;;;;;21.57;70.13;100541.77;;;;-52
2021/08/10 14:08:51;;;;;;;10.41;5.31;;;;;;;21.57;70.40;100540.53;;;;-53
2021/08/10 14:11:51;;;;;;;11.06;5.25;;;;;;;21.57;70.43;100532.20;;;;-56
2021/08/10 14:14:51;;;;;;;13.23;5.49;;;;;;;21.57;70.32;100529.85;;;;-58
2021/08/10 14:17:51;;;;;;;12.91;5.81;;;;;;;21.57;70.19;100528.30;;;;-54
2021/08/10 14:20:51;;;;;;;13.96;6.04;;;;;;;21.58;70.25;100523.23;;;;-52
2021/08/10 14:23:51;;;;;;;10.59;6.00;;;;;;;21.59;70.34;100520.88;;;;-54
2021/08/10 14:26:51;;;;;;;13.36;6.35;;;;;;;21.60;70.47;100517.03;;;;-53
2021/08/10 14:29:51;;;;;;;11.93;6.36;;;;;;;21.61;70.30;100515.66;;;;-56
2021/08/10 14:32:52;;;;;;;12.37;5.98;;;;;;;21.63;70.33;100514.35;;;;-56
2021/08/10 14:35:51;;;;;;;11.99;6.23;;;;;;;21.64;70.28;100516.38;;;;-50
2021/08/10 14:38:51;;;;;;;11.96;6.24;;;;;;;21.64;70.51;100512.41;;;;-49
2021/08/10 14:41:51;;;;;;;16.51;6.54;;;;;;;21.65;70.46;100513.69;;;;-49
2021/08/10 14:44:51;;;;;;;13.81;6.31;;;;;;;21.66;70.55;100518.00;;;;-49
2021/08/10 14:47:51;;;;;;;14.55;6.34;;;;;;;21.67;70.55;100510.19;;;;-49
2021/08/10 14:50:51;;;;;;;15.70;6.65;;;;;;;21.67;70.36;100505.37;;;;-54
2021/08/10 14:53:51;;;;;;;15.36;6.51;;;;;;;21.66;70.38;100508.45;;;;-54
2021/08/10 14:56:51;;;;;;;14.80;6.63;;;;;;;21.66;70.40;100509.92;;;;-62
2021/08/10 14:59:51;;;;;;;13.35;6.55;;;;;;;21.66;70.49;100512.38;;;;-53
2021/08/10 15:02:51;;;;;;;15.49;6.51;;;;;;;21.66;70.32;100506.59;;;;-53
2021/08/10 15:05:51;;;;;;;11.73;6.17;;;;;;;21.65;70.31;100508.16;;;;-54
2021/08/10 15:08:51;;;;;;;12.05;6.09;;;;;;;21.64;70.29;100502.75;;;;-62
2021/08/10 15:11:51;;;;;;;12.39;6.01;;;;;;;21.64;70.25;100501.37;;;;-62
2021/08/10 15:14:51;;;;;;;11.75;6.05;;;;;;;21.63;70.24;100500.98;;;;-54
2021/08/10 15:17:51;;;;;;;16.35;6.34;;;;;;;21.63;70.21;100498.45;;;;-54
2021/08/10 15:20:51;;;;;;;12.08;6.05;;;;;;;21.62;70.20;100499.90;;;;-54
2021/08/10 15:23:51;;;;;;;12.70;5.81;;;;;;;21.61;70.15;100494.05;;;;-62
2021/08/10 15:26:51;;;;;;;14.19;6.19;;;;;;;21.61;70.07;100498.20;;;;-61
2021/08/10 15:29:51;;;;;;;11.61;6.67;;;;;;;21.61;70.14;100499.75;;;;-62
2021/08/10 15:32:51;;;;;;;11.89;5.87;;;;;;;21.60;70.03;100491.34;;;;-61
2021/08/10 15:35:51;;;;;;;12.34;5.91;;;;;;;21.60;70.01;100489.23;;;;-63
2021/08/10 15:38:51;;;;;;;10.29;6.14;;;;;;;21.60;70.00;100487.76;;;;-64
2021/08/10 15:41:51;;;;;;;10.46;6.06;;;;;;;21.59;69.95;100488.50;;;;-63
2021/08/10 15:44:51;;;;;;;11.78;6.02;;;;;;;21.59;70.06;100491.28;;;;-64
2021/08/10 15:47:51;;;;;;;12.71;5.99;;;;;;;21.59;70.00;100487.03;;;;-54
2021/08/10 15:50:51;;;;;;;11.33;6.11;;;;;;;21.60;70.08;100488.16;;;;-54
2021/08/10 15:53:51;;;;;;;11.75;6.25;;;;;;;21.61;70.04;100487.84;;;;-54
2021/08/10 15:56:51;;;;;;;11.23;6.23;;;;;;;21.61;70.05;100482.14;;;;-54
2021/08/10 15:59:51;;;;;;;11.51;6.28;;;;;;;21.59;69.98;100475.94;;;;-55
2021/08/10 16:02:51;;;;;;;13.57;5.94;;;;;;;21.60;70.02;100477.99;;;;-55
2021/08/10 16:05:51;;;;;;;10.58;6.13;;;;;;;21.59;69.94;100480.34;;;;-54
2021/08/10 16:08:51;;;;;;;11.77;6.16;;;;;;;21.60;70.00;100483.19;;;;-52
2021/08/10 16:11:52;;;;;;;11.20;6.26;;;;;;;21.60;69.99;100478.70;;;;-51
2021/08/10 16:14:51;;;;;;;19.50;6.75;;;;;;;21.63;70.00;100482.13;;;;-50
2021/08/10 16:17:51;;;;;;;14.59;6.75;;;;;;;21.64;70.09;100478.96;;;;-56
2021/08/10 16:20:51;;;;;;;12.24;6.64;;;;;;;21.66;70.25;100478.94;;;;-51
2021/08/10 16:23:51;;;;;;;14.25;6.78;;;;;;;21.66;70.28;100475.02;;;;-54
2021/08/10 16:26:51;;;;;;;14.21;7.01;;;;;;;21.68;70.23;100473.54;;;;-50
2021/08/10 16:29:51;;;;;;;15.04;6.76;;;;;;;21.70;70.32;100478.10;;;;-50
2021/08/10 16:32:51;;;;;;;13.21;6.53;;;;;;;21.71;70.35;100474.70;;;;-54
2021/08/10 16:35:51;;;;;;;11.44;6.87;;;;;;;21.72;70.40;100471.91;;;;-51
2021/08/10 16:38:51;;;;;;;12.99;6.87;;;;;;;21.73;70.29;100477.63;;;;-53
2021/08/10 16:41:51;;;;;;;14.07;6.72;;;;;;;21.73;70.33;100474.94;;;;-51